Terminal Aerodrome Forecast
Issued by NWS Goodland, KS

Home | Current Version | Previous Version | Text Only | Print | Product List | Glossary On
Versions: 1 2 3 4 5 6 7 8 9 10 11 12 13 14
000
FTUS43 KGLD 302337 AAC
TAFGLD
TAF AMD
KGLD 302337Z 3100/3124 17016KT 5SM FU SKC
     FM310300 18012KT P6SM SKC
     FM311500 04008KT P6SM SKC
     FM311900 13011KT P6SM SCT250=

USA.gov is the U.S. government's official web portal to all federal, state and local government web resources and services.